Shintaiei Maru — JD3904 — position and weather

sailwx.info

Track history (hours):
 
Tides and Currents Weather Stations Pressure Air Temp Water Temp Dewpoint Dewpoint Depression Visibility Wind Speed Wind Dir Waves Ship Positions

Shintaiei Maru

Last reported at 2018-Feb-23 02:39 UTC. Time now 2018-Feb-23 12:42 UTC.
Position N 34°47' E 134°38'.

Length 75 m; draft 4.5 m.

Type: Cargo ship. MMSI: 431006906.

Date/timePositionNaut miles runAvg speedWind from/ knotsBaromVisibWave heightAir tempDewpointWater temp
2018-Feb-23 02:39N 34°47' E 134°38'0 0.7
2018-Feb-23 02:18N 34°47' E 134°38'2 5.6
2018-Feb-23 02:00N 34°45' E 134°38'0 0.0
2018-Feb-22 16:52N 34°45' E 134°38'0 0.0
2018-Feb-22 10:10N 34°45' E 134°38'0 0.0
2018-Feb-22 09:46N 34°45' E 134°38'0 0.0
2018-Feb-22 09:19N 34°45' E 134°38'0 0.0
2018-Feb-22 08:49N 34°45' E 134°38'0 0.0
2018-Feb-22 08:25N 34°45' E 134°38'0 0.0
2018-Feb-22 07:55N 34°45' E 134°38'0 0.0
2018-Feb-22 07:28N 34°45' E 134°38'0 0.1
2018-Feb-22 06:52N 34°45' E 134°38'4 3.2
2018-Feb-22 05:42N 34°41' E 134°37'311.7
2018-Feb-22 05:24N 34°38' E 134°38'511.5
2018-Feb-22 04:56N 34°32' E 134°38'511.2
2018-Feb-22 04:30N 34°28' E 134°38'611.2
2018-Feb-22 04:00N 34°22' E 134°38'611.4
2018-Feb-22 03:29N 34°16' E 134°38'911.9
2018-Feb-22 02:41N 34°08' E 134°45'211.0
2018-Feb-22 02:30N 34°07' E 134°46'711.4
2018-Feb-22 01:52N 34°01' E 134°52'411.7
2018-Feb-22 01:30N 33°58' E 134°55'611.6
2018-Feb-22 01:00N 33°53' E 134°60'104 7.6
2018-Feb-21 11:27N 34°38' E 136°53'511.2
2018-Feb-21 11:00N 34°42' E 136°49'611.7
2018-Feb-21 10:30N 34°47' E 136°46'611.6
2018-Feb-21 10:00N 34°53' E 136°46'611.2
2018-Feb-21 09:30N 34°58' E 136°48'610.8
2018-Feb-21 09:00N 35°03' E 136°52'1 1.5
2018-Feb-21 08:30N 35°03' E 136°53'0 0.0
2018-Feb-21 07:59N 35°03' E 136°53'0 0.0
2018-Feb-21 07:29N 35°03' E 136°53'0 0.0
2018-Feb-21 06:59N 35°03' E 136°53'0 0.0
2018-Feb-21 06:29N 35°03' E 136°53'0 0.0
2018-Feb-21 05:59N 35°03' E 136°53'0 0.0
2018-Feb-21 05:29N 35°03' E 136°53'0 0.0
2018-Feb-21 04:59N 35°03' E 136°53'0 0.0
2018-Feb-21 04:29N 35°03' E 136°53'0 0.0
2018-Feb-21 03:59N 35°03' E 136°53'0 0.0
2018-Feb-21 03:29N 35°03' E 136°53'0 0.0
2018-Feb-21 02:59N 35°03' E 136°53'0 0.0
2018-Feb-21 02:29N 35°03' E 136°53'0 0.0
2018-Feb-21 02:00N 35°03' E 136°53'3 5.4
2018-Feb-21 01:30N 35°01' E 136°50'3 5.5
2018-Feb-21 01:00N 34°59' E 136°48'0 0.0
2018-Feb-21 00:30N 34°59' E 136°48'0 0.0
2018-Feb-21 00:00N 34°59' E 136°48'0 0.0
2018-Feb-20 23:30N 34°59' E 136°48'0 0.0
2018-Feb-20 23:00N 34°59' E 136°48'0 0.0
2018-Feb-20 22:30N 34°59' E 136°48'0 0.0
2018-Feb-20 22:00N 34°59' E 136°48'0 0.0
2018-Feb-20 21:30N 34°59' E 136°48'0 0.1
2018-Feb-20 21:00N 34°59' E 136°48'0 0.1
2018-Feb-20 20:30N 34°59' E 136°48'0 0.0
2018-Feb-20 20:00N 34°59' E 136°48'0 0.1
2018-Feb-20 19:30N 34°59' E 136°48'0 0.1
2018-Feb-20 19:00N 34°59' E 136°48'0 0.0
2018-Feb-20 18:27N 34°59' E 136°48'0 0.0
2018-Feb-20 18:00N 34°59' E 136°48'0 0.0
2018-Feb-20 17:30N 34°59' E 136°48'0 0.0
2018-Feb-20 17:00N 34°59' E 136°48'0 0.0
2018-Feb-20 16:30N 34°59' E 136°48'0 0.0
2018-Feb-20 16:00N 34°59' E 136°48'0 0.0
2018-Feb-20 15:27N 34°59' E 136°48'0 0.0
2018-Feb-20 15:00N 34°59' E 136°48'0 0.0
2018-Feb-20 14:30N 34°59' E 136°48'0 0.1
2018-Feb-20 14:00N 34°59' E 136°48'5 9.1
2018-Feb-20 13:31N 34°55' E 136°47'610.9
2018-Feb-20 13:00N 34°49' E 136°47'510.6
2018-Feb-20 12:30N 34°44' E 136°49'2310.1
2018-Feb-20 10:15N 34°34' E 137°13'51 9.9
2018-Feb-20 05:09N 34°34' E 138°15'210.5
2018-Feb-20 05:00N 34°35' E 138°17'611.2
2018-Feb-20 04:27N 34°40' E 138°21'511.4
2018-Feb-20 04:01N 34°44' E 138°25'611.8
2018-Feb-20 03:30N 34°49' E 138°30'612.0
2018-Feb-20 03:00N 34°53' E 138°34'611.8
2018-Feb-20 02:30N 34°57' E 138°40'611.9
2018-Feb-20 02:00N 35°01' E 138°45'611.8
2018-Feb-20 01:30N 35°05' E 138°51'1 1.0
2018-Feb-20 00:59N 35°05' E 138°51'0 0.0
2018-Feb-20 00:23N 35°05' E 138°51'0 0.0
2018-Feb-19 23:59N 35°05' E 138°51'0 0.0
2018-Feb-19 22:05N 35°05' E 138°51'0 0.0
2018-Feb-19 21:53N 35°05' E 138°51'0 0.0
2018-Feb-19 21:17N 35°05' E 138°51'0 0.0
2018-Feb-19 20:23N 35°05' E 138°51'0 0.0
2018-Feb-19 15:26N 35°05' E 138°51'0 0.0
2018-Feb-19 14:56N 35°05' E 138°51'0 0.0
2018-Feb-19 14:19N 35°05' E 138°51'0 0.0
2018-Feb-19 12:56N 35°05' E 138°51'0 0.0
2018-Feb-19 12:29N 35°05' E 138°51'0 0.0
2018-Feb-19 11:47N 35°05' E 138°51'0 0.0
2018-Feb-19 11:23N 35°05' E 138°51'0 0.0
2018-Feb-19 10:41N 35°05' E 138°51'0 0.0
2018-Feb-19 10:28N 35°05' E 138°51'0 0.0
2018-Feb-19 09:58N 35°05' E 138°51'0 0.0
2018-Feb-19 09:17N 35°05' E 138°51'0 0.0
2018-Feb-19 08:59N 35°05' E 138°51'0 0.0
2018-Feb-19 08:13N 35°05' E 138°51'0 0.0
2018-Feb-19 07:56N 35°05' E 138°51'2 4.1
2018-Feb-19 07:27N 35°04' E 138°49'511.6
2018-Feb-19 07:00N 35°01' E 138°44'611.6
2018-Feb-19 06:30N 34°58' E 138°38'611.4
2018-Feb-19 06:00N 34°55' E 138°32'611.4
2018-Feb-19 05:30N 34°51' E 138°27'611.5
2018-Feb-19 05:00N 34°48' E 138°21'3 5.7
2018-Feb-19 04:28N 34°47' E 138°18'0 0.0
2018-Feb-18 23:11N 34°47' E 138°18'0 0.0
2018-Feb-18 22:50N 34°47' E 138°18'0 0.4
2018-Feb-18 22:29N 34°47' E 138°18'1 0.1
2018-Feb-18 11:43N 34°46' E 138°19'1 3.9
2018-Feb-18 11:28N 34°45' E 138°18'611.2
2018-Feb-18 10:56N 34°39' E 138°18'410.3
2018-Feb-18 10:30N 34°35' E 138°16'611.1
2018-Feb-18 10:00N 34°33' E 138°10'7510.0
2018-Feb-18 02:28N 34°05' E 136°45'86 8.7
2018-Feb-17 16:37N 33°49' E 135°03'112.1
2018-Feb-17 16:30N 33°50' E 135°02'611.9
2018-Feb-17 15:59N 33°54' E 134°58'611.5
2018-Feb-17 15:30N 33°59' E 134°53'611.8
2018-Feb-17 15:00N 34°03' E 134°49'611.9
2018-Feb-17 14:30N 34°08' E 134°45'612.1
2018-Feb-17 14:00N 34°13' E 134°40'611.7
2018-Feb-17 13:30N 34°17' E 134°35'510.9
2018-Feb-17 13:00N 34°19' E 134°29'611.1
2018-Feb-17 12:30N 34°21' E 134°22'910.6
2018-Feb-17 11:40N 34°24' E 134°12'  
Track history (hours):
 
Tides and Currents Weather Stations Pressure Air Temp Water Temp Dewpoint Dewpoint Depression Visibility Wind Speed Wind Dir Waves Ship Positions

Shintaiei Maru

Last reported at 2018-Feb-23 02:39 UTC. Time now 2018-Feb-23 12:42 UTC.
Position N 34°47' E 134°38'.

Length 75 m; draft 4.5 m.

Type: Cargo ship. MMSI: 431006906.

Date/timePositionNaut miles runAvg speedWind from/ knotsBaromVisibWave heightAir tempDewpointWater temp
2018-Feb-23 02:39N 34°47' E 134°38'0 0.7
2018-Feb-23 02:18N 34°47' E 134°38'2 5.6
2018-Feb-23 02:00N 34°45' E 134°38'0 0.0
2018-Feb-22 16:52N 34°45' E 134°38'0 0.0
2018-Feb-22 10:10N 34°45' E 134°38'0 0.0
2018-Feb-22 09:46N 34°45' E 134°38'0 0.0
2018-Feb-22 09:19N 34°45' E 134°38'0 0.0
2018-Feb-22 08:49N 34°45' E 134°38'0 0.0
2018-Feb-22 08:25N 34°45' E 134°38'0 0.0
2018-Feb-22 07:55N 34°45' E 134°38'0 0.0
2018-Feb-22 07:28N 34°45' E 134°38'0 0.1
2018-Feb-22 06:52N 34°45' E 134°38'4 3.2
2018-Feb-22 05:42N 34°41' E 134°37'311.7
2018-Feb-22 05:24N 34°38' E 134°38'511.5
2018-Feb-22 04:56N 34°32' E 134°38'511.2
2018-Feb-22 04:30N 34°28' E 134°38'611.2
2018-Feb-22 04:00N 34°22' E 134°38'611.4
2018-Feb-22 03:29N 34°16' E 134°38'911.9
2018-Feb-22 02:41N 34°08' E 134°45'211.0
2018-Feb-22 02:30N 34°07' E 134°46'711.4
2018-Feb-22 01:52N 34°01' E 134°52'411.7
2018-Feb-22 01:30N 33°58' E 134°55'611.6
2018-Feb-22 01:00N 33°53' E 134°60'104 7.6
2018-Feb-21 11:27N 34°38' E 136°53'511.2
2018-Feb-21 11:00N 34°42' E 136°49'611.7
2018-Feb-21 10:30N 34°47' E 136°46'611.6
2018-Feb-21 10:00N 34°53' E 136°46'611.2
2018-Feb-21 09:30N 34°58' E 136°48'610.8
2018-Feb-21 09:00N 35°03' E 136°52'1 1.5
2018-Feb-21 08:30N 35°03' E 136°53'0 0.0
2018-Feb-21 07:59N 35°03' E 136°53'0 0.0
2018-Feb-21 07:29N 35°03' E 136°53'0 0.0
2018-Feb-21 06:59N 35°03' E 136°53'0 0.0
2018-Feb-21 06:29N 35°03' E 136°53'0 0.0
2018-Feb-21 05:59N 35°03' E 136°53'0 0.0
2018-Feb-21 05:29N 35°03' E 136°53'0 0.0
2018-Feb-21 04:59N 35°03' E 136°53'0 0.0
2018-Feb-21 04:29N 35°03' E 136°53'0 0.0
2018-Feb-21 03:59N 35°03' E 136°53'0 0.0
2018-Feb-21 03:29N 35°03' E 136°53'0 0.0
2018-Feb-21 02:59N 35°03' E 136°53'0 0.0
2018-Feb-21 02:29N 35°03' E 136°53'0 0.0
2018-Feb-21 02:00N 35°03' E 136°53'3 5.4
2018-Feb-21 01:30N 35°01' E 136°50'3 5.5
2018-Feb-21 01:00N 34°59' E 136°48'0 0.0
2018-Feb-21 00:30N 34°59' E 136°48'0 0.0
2018-Feb-21 00:00N 34°59' E 136°48'0 0.0
2018-Feb-20 23:30N 34°59' E 136°48'0 0.0
2018-Feb-20 23:00N 34°59' E 136°48'0 0.0
2018-Feb-20 22:30N 34°59' E 136°48'0 0.0
2018-Feb-20 22:00N 34°59' E 136°48'0 0.0
2018-Feb-20 21:30N 34°59' E 136°48'0 0.1
2018-Feb-20 21:00N 34°59' E 136°48'0 0.1
2018-Feb-20 20:30N 34°59' E 136°48'0 0.0
2018-Feb-20 20:00N 34°59' E 136°48'0 0.1
2018-Feb-20 19:30N 34°59' E 136°48'0 0.1
2018-Feb-20 19:00N 34°59' E 136°48'0 0.0
2018-Feb-20 18:27N 34°59' E 136°48'0 0.0
2018-Feb-20 18:00N 34°59' E 136°48'0 0.0
2018-Feb-20 17:30N 34°59' E 136°48'0 0.0
2018-Feb-20 17:00N 34°59' E 136°48'0 0.0
2018-Feb-20 16:30N 34°59' E 136°48'0 0.0
2018-Feb-20 16:00N 34°59' E 136°48'0 0.0
2018-Feb-20 15:27N 34°59' E 136°48'0 0.0
2018-Feb-20 15:00N 34°59' E 136°48'0 0.0
2018-Feb-20 14:30N 34°59' E 136°48'0 0.1
2018-Feb-20 14:00N 34°59' E 136°48'5 9.1
2018-Feb-20 13:31N 34°55' E 136°47'610.9
2018-Feb-20 13:00N 34°49' E 136°47'510.6
2018-Feb-20 12:30N 34°44' E 136°49'2310.1
2018-Feb-20 10:15N 34°34' E 137°13'51 9.9
2018-Feb-20 05:09N 34°34' E 138°15'210.5
2018-Feb-20 05:00N 34°35' E 138°17'611.2
2018-Feb-20 04:27N 34°40' E 138°21'511.4
2018-Feb-20 04:01N 34°44' E 138°25'611.8
2018-Feb-20 03:30N 34°49' E 138°30'612.0
2018-Feb-20 03:00N 34°53' E 138°34'611.8
2018-Feb-20 02:30N 34°57' E 138°40'611.9
2018-Feb-20 02:00N 35°01' E 138°45'611.8
2018-Feb-20 01:30N 35°05' E 138°51'1 1.0
2018-Feb-20 00:59N 35°05' E 138°51'0 0.0
2018-Feb-20 00:23N 35°05' E 138°51'0 0.0
2018-Feb-19 23:59N 35°05' E 138°51'0 0.0
2018-Feb-19 22:05N 35°05' E 138°51'0 0.0
2018-Feb-19 21:53N 35°05' E 138°51'0 0.0
2018-Feb-19 21:17N 35°05' E 138°51'0 0.0
2018-Feb-19 20:23N 35°05' E 138°51'0 0.0
2018-Feb-19 15:26N 35°05' E 138°51'0 0.0
2018-Feb-19 14:56N 35°05' E 138°51'0 0.0
2018-Feb-19 14:19N 35°05' E 138°51'0 0.0
2018-Feb-19 12:56N 35°05' E 138°51'0 0.0
2018-Feb-19 12:29N 35°05' E 138°51'0 0.0
2018-Feb-19 11:47N 35°05' E 138°51'0 0.0
2018-Feb-19 11:23N 35°05' E 138°51'0 0.0
2018-Feb-19 10:41N 35°05' E 138°51'0 0.0
2018-Feb-19 10:28N 35°05' E 138°51'0 0.0
2018-Feb-19 09:58N 35°05' E 138°51'0 0.0
2018-Feb-19 09:17N 35°05' E 138°51'0 0.0
2018-Feb-19 08:59N 35°05' E 138°51'0 0.0
2018-Feb-19 08:13N 35°05' E 138°51'0 0.0
2018-Feb-19 07:56N 35°05' E 138°51'2 4.1
2018-Feb-19 07:27N 35°04' E 138°49'511.6
2018-Feb-19 07:00N 35°01' E 138°44'611.6
2018-Feb-19 06:30N 34°58' E 138°38'611.4
2018-Feb-19 06:00N 34°55' E 138°32'611.4
2018-Feb-19 05:30N 34°51' E 138°27'611.5
2018-Feb-19 05:00N 34°48' E 138°21'3 5.7
2018-Feb-19 04:28N 34°47' E 138°18'0 0.0
2018-Feb-18 23:11N 34°47' E 138°18'0 0.0
2018-Feb-18 22:50N 34°47' E 138°18'0 0.4
2018-Feb-18 22:29N 34°47' E 138°18'1 0.1
2018-Feb-18 11:43N 34°46' E 138°19'1 3.9
2018-Feb-18 11:28N 34°45' E 138°18'611.2
2018-Feb-18 10:56N 34°39' E 138°18'410.3
2018-Feb-18 10:30N 34°35' E 138°16'611.1
2018-Feb-18 10:00N 34°33' E 138°10'7510.0
2018-Feb-18 02:28N 34°05' E 136°45'86 8.7
2018-Feb-17 16:37N 33°49' E 135°03'112.1
2018-Feb-17 16:30N 33°50' E 135°02'611.9
2018-Feb-17 15:59N 33°54' E 134°58'611.5
2018-Feb-17 15:30N 33°59' E 134°53'611.8
2018-Feb-17 15:00N 34°03' E 134°49'611.9
2018-Feb-17 14:30N 34°08' E 134°45'612.1
2018-Feb-17 14:00N 34°13' E 134°40'611.7
2018-Feb-17 13:30N 34°17' E 134°35'510.9
2018-Feb-17 13:00N 34°19' E 134°29'611.1
2018-Feb-17 12:30N 34°21' E 134°22'910.6
2018-Feb-17 11:40N 34°24' E 134°12'  

Dump ship's entire track history